createdAt,value
2022-11-05T00:00:02.991Z,3.4
2022-11-05T00:15:02.422Z,3.2
2022-11-05T00:30:02.860Z,3.1
2022-11-05T00:45:02.389Z,3.1
2022-11-05T01:00:02.820Z,2.8
2022-11-05T01:15:02.153Z,2.7
2022-11-05T01:30:02.835Z,2.7
2022-11-05T01:45:03.054Z,2.7
2022-11-05T02:00:02.482Z,2.4
2022-11-05T02:15:02.941Z,2.1
2022-11-05T02:30:02.362Z,1.8
2022-11-05T02:45:02.840Z,1.7
2022-11-05T03:00:03.236Z,1.7
2022-11-05T03:15:02.847Z,1.9
2022-11-05T03:30:02.109Z,2.0
2022-11-05T03:45:02.550Z,1.9
2022-11-05T04:00:02.981Z,1.7
2022-11-05T04:15:02.429Z,1.5
2022-11-05T04:30:02.874Z,1.4
2022-11-05T04:45:02.297Z,1.3
2022-11-05T05:00:02.881Z,1.3
2022-11-05T05:15:02.179Z,1.2
2022-11-05T05:30:02.623Z,1.1
2022-11-05T05:45:03.091Z,1.0
2022-11-05T06:00:02.506Z,0.9
2022-11-05T06:15:02.945Z,0.9
2022-11-05T06:30:02.416Z,1.0
2022-11-05T06:45:02.889Z,1.1
2022-11-05T07:00:07.319Z,1.0
2022-11-05T07:30:02.188Z,1.0
2022-11-05T07:45:02.560Z,1.3
2022-11-05T08:00:03.025Z,1.8
2022-11-05T08:15:02.443Z,3.2
2022-11-05T08:30:02.919Z,4.4
2022-11-05T08:45:02.326Z,6.4
2022-11-05T09:00:02.919Z,8.4
2022-11-05T09:15:02.196Z,10.2
2022-11-05T09:30:02.678Z,11.0
2022-11-05T09:45:03.091Z,11.8
2022-11-05T10:00:02.510Z,11.2
2022-11-05T10:15:02.964Z,9.5
2022-11-05T10:30:02.393Z,9.1
2022-11-05T10:45:02.924Z,9.2
2022-11-05T11:00:02.279Z,9.5
2022-11-05T11:15:02.941Z,10.2
2022-11-05T11:30:02.154Z,10.5
2022-11-05T11:45:02.590Z,11.0
2022-11-05T12:00:08.912Z,12.3
2022-11-05T12:15:03.465Z,13.7
2022-11-05T12:30:02.969Z,14.2
2022-11-05T12:45:02.331Z,13.4
2022-11-05T13:00:02.981Z,12.7
2022-11-05T13:15:02.196Z,12.2
2022-11-05T13:30:02.645Z,12.2
2022-11-05T13:45:03.080Z,11.7
2022-11-05T14:00:02.518Z,11.4
2022-11-05T14:15:03.008Z,11.2
2022-11-05T14:30:02.434Z,11.2
2022-11-05T14:45:03.036Z,11.0
2022-11-05T15:00:02.407Z,10.9
2022-11-05T15:15:02.709Z,10.7
2022-11-05T15:30:03.297Z,10.4
2022-11-05T15:45:02.569Z,10.2
2022-11-05T16:00:03.022Z,9.9
2022-11-05T16:15:02.455Z,9.7
2022-11-05T16:30:03.015Z,9.6
2022-11-05T16:45:02.319Z,9.5
2022-11-05T17:00:02.770Z,9.3
2022-11-05T17:15:03.171Z,9.3
2022-11-05T17:30:02.619Z,9.4
2022-11-05T17:45:03.083Z,9.3
2022-11-05T18:00:02.506Z,9.3
2022-11-05T18:15:03.023Z,9.2
2022-11-05T18:30:02.384Z,9.2
2022-11-05T18:45:03.042Z,9.2
2022-11-05T19:15:03.215Z,9.1
2022-11-05T19:30:03.103Z,9.2
2022-11-05T19:45:30.552Z,9.3
2022-11-05T20:00:03.035Z,9.3
2022-11-05T20:15:03.468Z,9.4
2022-11-05T20:30:03.063Z,9.4
2022-11-05T20:45:02.331Z,9.3
2022-11-05T21:00:02.773Z,9.3
2022-11-05T21:15:03.198Z,9.3
2022-11-05T21:30:02.662Z,9.2
2022-11-05T21:45:03.086Z,9.1
2022-11-05T22:00:02.539Z,9.2
2022-11-05T22:15:03.094Z,9.2
2022-11-05T22:30:02.385Z,9.2
2022-11-05T22:45:03.000Z,9.3
2022-11-05T23:00:02.272Z,9.3
2022-11-05T23:15:02.690Z,9.4
2022-11-05T23:30:03.138Z,9.4
2022-11-05T23:45:02.573Z,9.3
